createdAt,value
2022-12-16T00:04:28.532Z,56.9
2022-12-16T00:09:28.597Z,54.7
2022-12-16T00:14:28.528Z,51.3
2022-12-16T00:19:28.664Z,53.9
2022-12-16T00:24:28.529Z,51.9
2022-12-16T00:29:28.511Z,53.1
2022-12-16T00:34:28.771Z,45.8
2022-12-16T00:39:28.541Z,51.0
2022-12-16T00:44:28.457Z,51.3
2022-12-16T00:49:28.598Z,52.8
2022-12-16T00:54:28.709Z,58.7
2022-12-16T00:59:28.450Z,57.1
2022-12-16T01:04:28.460Z,56.0
2022-12-16T01:09:28.470Z,53.6
2022-12-16T01:14:28.455Z,54.6
2022-12-16T01:19:28.718Z,51.2
2022-12-16T01:24:28.405Z,53.2
2022-12-16T01:29:28.581Z,56.7
2022-12-16T01:34:28.539Z,50.1
2022-12-16T01:39:28.401Z,54.4
2022-12-16T01:44:28.420Z,58.9
2022-12-16T01:49:28.464Z,59.4
2022-12-16T01:54:28.355Z,58.0
2022-12-16T01:59:28.363Z,54.7
2022-12-16T02:04:28.444Z,57.3
2022-12-16T02:09:28.351Z,54.7
2022-12-16T02:14:28.333Z,59.2
2022-12-16T02:19:28.437Z,63.5
2022-12-16T02:24:29.581Z,61.9
2022-12-16T02:29:28.306Z,64.5
2022-12-16T02:34:28.321Z,64.4
2022-12-16T02:39:28.254Z,70.0
2022-12-16T02:44:28.255Z,64.3
2022-12-16T02:49:28.507Z,62.0
2022-12-16T02:54:28.331Z,60.4
2022-12-16T02:59:29.594Z,59.6
2022-12-16T03:04:28.504Z,55.4
2022-12-16T03:09:28.537Z,61.2
2022-12-16T03:14:28.559Z,53.2
2022-12-16T03:19:28.152Z,61.0
2022-12-16T03:24:28.390Z,59.6
2022-12-16T03:29:28.286Z,52.5
2022-12-16T03:34:28.152Z,55.8
2022-12-16T03:39:28.211Z,54.1
2022-12-16T03:44:28.160Z,47.2
2022-12-16T03:49:28.325Z,51.2
2022-12-16T03:54:38.038Z,46.0
2022-12-16T03:59:28.181Z,47.4
2022-12-16T04:04:28.384Z,46.4
2022-12-16T04:09:28.414Z,48.6
2022-12-16T04:14:28.704Z,44.5
2022-12-16T04:19:29.932Z,49.5
2022-12-16T04:24:28.092Z,43.0
2022-12-16T04:29:28.086Z,40.6
2022-12-16T04:34:28.100Z,42.5
2022-12-16T04:39:28.188Z,40.9
2022-12-16T04:44:28.244Z,36.5
2022-12-16T04:49:28.050Z,34.3
2022-12-16T04:54:28.052Z,37.0
2022-12-16T04:59:28.254Z,34.2
2022-12-16T05:04:28.032Z,39.7
2022-12-16T05:09:28.050Z,36.3
2022-12-16T05:14:28.139Z,33.8
2022-12-16T05:19:31.650Z,36.6
2022-12-16T05:24:27.979Z,38.4
2022-12-16T05:29:28.107Z,40.1
2022-12-16T05:34:27.959Z,41.7
2022-12-16T05:39:27.953Z,44.4
2022-12-16T05:44:28.058Z,47.3
2022-12-16T05:49:27.981Z,46.4
2022-12-16T05:54:27.900Z,42.4
2022-12-16T05:59:28.148Z,54.9
2022-12-16T06:04:28.069Z,44.9
2022-12-16T06:09:28.220Z,44.8
2022-12-16T06:14:27.857Z,44.6
2022-12-16T06:19:27.863Z,46.7
2022-12-16T06:24:27.998Z,45.1
2022-12-16T06:29:28.032Z,47.3
2022-12-16T06:34:27.914Z,46.1
2022-12-16T06:39:28.068Z,42.5
2022-12-16T06:44:28.765Z,46.2
2022-12-16T06:49:28.045Z,50.3
2022-12-16T06:54:27.991Z,49.6
2022-12-16T06:59:27.835Z,46.6
2022-12-16T07:04:27.969Z,43.3
2022-12-16T07:09:27.789Z,41.2
2022-12-16T07:14:27.788Z,40.7
2022-12-16T07:19:27.728Z,37.4
2022-12-16T07:24:27.777Z,39.9
2022-12-16T07:29:27.883Z,40.6
2022-12-16T07:39:27.775Z,45.3
2022-12-16T07:44:27.802Z,43.6
2022-12-16T07:49:27.721Z,44.3
2022-12-16T07:54:28.030Z,42.0
2022-12-16T07:59:27.962Z,43.2
2022-12-16T08:04:27.828Z,42.9
2022-12-16T08:09:27.834Z,46.0
2022-12-16T08:14:27.878Z,42.0
2022-12-16T08:19:27.658Z,40.0
2022-12-16T08:24:27.806Z,38.0
2022-12-16T08:29:43.757Z,39.1
2022-12-16T08:34:27.904Z,41.5
2022-12-16T08:39:28.196Z,39.2
2022-12-16T08:44:28.161Z,42.0
2022-12-16T08:49:27.806Z,39.8
2022-12-16T08:54:27.584Z,40.0
2022-12-16T08:59:27.612Z,41.1
2022-12-16T09:04:27.600Z,42.1
2022-12-16T09:09:27.617Z,40.8
2022-12-16T09:14:27.671Z,45.3
2022-12-16T09:19:27.565Z,48.2
2022-12-16T09:24:27.519Z,48.3
2022-12-16T09:29:27.680Z,40.8
2022-12-16T09:34:27.666Z,41.6
2022-12-16T09:39:27.739Z,41.4
2022-12-16T09:44:27.642Z,37.5
2022-12-16T09:49:27.505Z,41.5
2022-12-16T09:54:27.523Z,51.4
2022-12-16T09:59:27.951Z,41.0
2022-12-16T10:04:29.430Z,37.4
2022-12-16T10:09:28.129Z,35.6
2022-12-16T10:14:27.790Z,38.3
2022-12-16T10:19:27.519Z,38.3
2022-12-16T10:24:27.765Z,32.4
2022-12-16T10:29:27.828Z,39.4
2022-12-16T10:34:30.408Z,42.4
2022-12-16T17:14:58.659Z,41.5
2022-12-16T17:24:57.147Z,68.6
2022-12-16T17:29:54.127Z,65.1
2022-12-16T17:39:53.317Z,68.6
2022-12-16T17:49:54.499Z,69.2
2022-12-16T17:54:52.691Z,87.5
2022-12-16T18:04:54.636Z,77.1
2022-12-16T18:09:54.122Z,83.9
2022-12-16T18:29:55.673Z,81.4
2022-12-16T18:34:56.089Z,95.4
2022-12-16T19:04:56.917Z,96.8
2022-12-16T19:39:56.948Z,90.8
2022-12-16T21:09:53.398Z,66.7
2022-12-16T21:14:51.996Z,100.8
2022-12-16T21:19:52.407Z,95.7
2022-12-16T21:24:52.656Z,96.4
2022-12-16T21:29:52.060Z,101.9
2022-12-16T21:34:52.794Z,98.7
2022-12-16T21:39:52.782Z,103.4
2022-12-16T21:44:52.128Z,109.5
2022-12-16T21:49:56.126Z,90.6
2022-12-16T21:54:52.813Z,103.4
2022-12-16T21:59:52.889Z,106.6
2022-12-16T22:04:53.506Z,107.4
2022-12-16T22:09:51.995Z,111.3
2022-12-16T22:14:52.720Z,97.0
2022-12-16T22:19:52.756Z,103.6
2022-12-16T22:24:52.503Z,104.6
2022-12-16T22:29:52.543Z,137.2
2022-12-16T22:39:52.522Z,126.1
2022-12-16T22:44:52.672Z,124.8
2022-12-16T22:49:52.469Z,129.3
2022-12-16T22:54:52.582Z,110.7
2022-12-16T22:59:52.843Z,106.8
2022-12-16T23:04:52.571Z,119.0
2022-12-16T23:09:53.220Z,125.1
2022-12-16T23:14:52.451Z,119.1
2022-12-16T23:19:52.504Z,145.0
2022-12-16T23:24:52.485Z,118.5
2022-12-16T23:29:52.381Z,160.9
2022-12-16T23:34:52.541Z,110.1
2022-12-16T23:39:52.524Z,106.3
2022-12-16T23:44:56.322Z,100.5
2022-12-16T23:49:52.339Z,107.3
2022-12-16T23:54:52.344Z,103.3
2022-12-16T23:59:52.405Z,103.0
